createdAt,value
2023-05-12T00:01:16.937Z,8.87
2023-05-12T00:03:43.786Z,9.40
2023-05-12T00:06:11.267Z,8.83
2023-05-12T00:08:37.855Z,8.63
2023-05-12T00:11:04.449Z,9.27
2023-05-12T00:13:30.896Z,9.53
2023-05-12T00:15:59.053Z,9.77
2023-05-12T00:18:26.326Z,9.77
2023-05-12T00:20:54.424Z,9.83
2023-05-12T00:23:22.096Z,10.07
2023-05-12T00:25:48.830Z,10.10
2023-05-12T00:28:15.333Z,10.37
2023-05-12T00:30:41.752Z,10.63
2023-05-12T00:33:08.156Z,11.10
2023-05-12T00:35:34.565Z,10.77
2023-05-12T00:38:01.067Z,9.43
2023-05-12T00:40:27.578Z,10.20
2023-05-12T00:42:53.977Z,9.57
2023-05-12T00:45:21.934Z,10.30
2023-05-12T00:47:48.795Z,12.20
2023-05-12T00:50:15.349Z,12.63
2023-05-12T00:52:41.786Z,11.23
2023-05-12T00:55:08.624Z,11.57
2023-05-12T00:57:35.134Z,11.10
2023-05-12T01:00:01.815Z,12.07
2023-05-12T01:02:28.818Z,10.87
2023-05-12T01:04:55.557Z,9.73
2023-05-12T01:07:22.896Z,10.80
2023-05-12T01:09:56.557Z,12.80
2023-05-12T01:12:23.742Z,10.90
2023-05-12T01:14:51.025Z,9.90
2023-05-12T01:17:21.131Z,9.73
2023-05-12T01:19:49.358Z,11.17
2023-05-12T01:22:16.896Z,11.17
2023-05-12T01:24:55.612Z,11.73
2023-05-12T01:27:23.619Z,13.43
2023-05-12T01:29:50.136Z,14.13
2023-05-12T01:32:16.788Z,11.73
2023-05-12T01:34:43.448Z,11.57
2023-05-12T01:37:10.534Z,14.50
2023-05-12T01:39:37.503Z,14.53
2023-05-12T01:42:07.351Z,11.87
2023-05-12T01:44:34.289Z,11.97
2023-05-12T01:47:01.616Z,11.43
2023-05-12T01:49:28.266Z,13.23
2023-05-12T01:51:54.937Z,16.93
2023-05-12T01:54:21.317Z,16.80
2023-05-12T01:56:47.999Z,16.23
2023-05-12T01:59:14.682Z,19.50
2023-05-12T02:01:41.208Z,19.97
2023-05-12T02:04:08.896Z,22.93
2023-05-12T02:06:35.424Z,21.37
2023-05-12T02:09:02.037Z,22.13
2023-05-12T02:11:28.787Z,22.30
2023-05-12T02:13:55.349Z,23.10
2023-05-12T02:16:21.958Z,20.63
2023-05-12T02:18:48.487Z,20.40
2023-05-12T02:21:15.072Z,16.73
2023-05-12T02:23:41.546Z,16.37
2023-05-12T02:26:07.933Z,17.80
2023-05-12T02:28:34.573Z,18.27
2023-05-12T02:31:00.952Z,22.40
2023-05-12T02:33:27.352Z,19.90
2023-05-12T02:35:54.000Z,16.80
2023-05-12T02:38:20.543Z,16.70
2023-05-12T02:40:47.445Z,17.03
2023-05-12T02:43:13.909Z,18.30
2023-05-12T02:45:40.456Z,17.00
2023-05-12T02:48:07.242Z,17.17
2023-05-12T02:50:33.783Z,17.20
2023-05-12T02:53:00.192Z,18.50
2023-05-12T02:55:27.150Z,18.33
2023-05-12T02:57:53.609Z,20.17
2023-05-12T03:00:20.209Z,19.90
2023-05-12T03:02:46.815Z,22.27
2023-05-12T03:05:13.310Z,22.50
2023-05-12T03:07:39.705Z,20.87
2023-05-12T03:10:06.546Z,22.57
2023-05-12T03:12:32.932Z,21.10
2023-05-12T03:14:59.346Z,21.33
2023-05-12T03:17:26.009Z,19.83
2023-05-12T03:19:52.434Z,18.50
2023-05-12T03:22:19.086Z,19.80
2023-05-12T03:24:46.684Z,18.97
2023-05-12T03:27:13.067Z,20.47
2023-05-12T03:29:39.767Z,21.83
2023-05-12T03:32:06.444Z,21.37
2023-05-12T03:34:32.948Z,21.47
2023-05-12T03:36:59.383Z,23.03
2023-05-12T03:39:25.856Z,22.57
2023-05-12T03:41:52.255Z,21.73
2023-05-12T03:44:18.831Z,21.33
2023-05-12T03:46:45.465Z,22.30
2023-05-12T03:49:12.139Z,22.03
2023-05-12T03:51:38.609Z,26.20
2023-05-12T03:54:05.156Z,27.10
2023-05-12T03:56:31.649Z,26.77
2023-05-12T03:58:58.047Z,28.20
2023-05-12T04:01:24.476Z,29.73
2023-05-12T04:03:50.988Z,29.17
2023-05-12T04:06:17.559Z,29.20
2023-05-12T04:08:43.992Z,27.50
2023-05-12T04:11:10.692Z,28.37
2023-05-12T04:13:37.097Z,29.43
2023-05-12T04:16:03.723Z,29.70
2023-05-12T04:18:30.398Z,28.00
2023-05-12T04:20:57.029Z,27.80
2023-05-12T04:23:23.605Z,29.30
2023-05-12T04:25:50.065Z,27.87
2023-05-12T04:28:16.738Z,27.90
2023-05-12T04:30:43.310Z,28.53
2023-05-12T04:33:10.462Z,27.13
2023-05-12T04:35:37.040Z,27.17
2023-05-12T04:38:03.709Z,28.00
2023-05-12T04:40:31.592Z,27.33
2023-05-12T04:43:00.129Z,25.30
2023-05-12T04:45:26.570Z,24.53
2023-05-12T04:47:53.032Z,25.20
2023-05-12T04:50:19.591Z,24.93
2023-05-12T04:52:45.975Z,23.73
2023-05-12T04:55:12.512Z,23.40
2023-05-12T04:57:41.250Z,24.10
2023-05-12T05:00:09.158Z,23.73
2023-05-12T05:02:36.010Z,23.43
2023-05-12T05:05:02.551Z,22.17
2023-05-12T05:07:29.082Z,22.30
2023-05-12T05:09:55.533Z,22.83
2023-05-12T05:12:21.937Z,22.03
2023-05-12T05:14:48.387Z,21.53
2023-05-12T05:17:14.888Z,21.30
2023-05-12T05:19:55.079Z,21.33
2023-05-12T05:22:24.659Z,21.57
2023-05-12T05:24:51.966Z,20.73
2023-05-12T05:27:18.667Z,20.73
2023-05-12T05:29:45.159Z,20.00
2023-05-12T05:32:11.690Z,20.43
2023-05-12T05:34:38.365Z,19.57
2023-05-12T05:37:04.995Z,19.40
2023-05-12T05:39:31.485Z,17.87
2023-05-12T05:41:58.092Z,18.70
2023-05-12T05:44:25.139Z,17.40
2023-05-12T05:46:52.004Z,17.73
2023-05-12T05:49:18.875Z,17.97
2023-05-12T05:51:45.459Z,17.93
2023-05-12T05:54:12.108Z,16.87
2023-05-12T05:56:38.634Z,17.53
2023-05-12T05:59:05.481Z,17.13
2023-05-12T06:01:32.358Z,14.70
2023-05-12T06:03:59.125Z,16.80
2023-05-12T06:06:25.659Z,15.77
2023-05-12T06:08:52.339Z,15.47
2023-05-12T06:11:18.708Z,14.27
2023-05-12T06:13:45.158Z,14.53
2023-05-12T06:16:11.587Z,15.23
2023-05-12T06:18:38.614Z,14.63
2023-05-12T06:21:05.744Z,14.17
2023-05-12T06:23:32.507Z,13.43
2023-05-12T06:25:59.164Z,12.93
2023-05-12T06:28:25.660Z,12.73
2023-05-12T06:30:52.329Z,12.77
2023-05-12T06:33:18.758Z,13.63
2023-05-12T06:35:45.185Z,11.50
2023-05-12T06:38:11.926Z,12.07
2023-05-12T06:40:38.328Z,11.67
2023-05-12T06:43:04.882Z,11.73
2023-05-12T06:45:31.349Z,11.83
2023-05-12T06:47:58.253Z,11.40
2023-05-12T06:50:24.714Z,11.20
2023-05-12T06:52:51.395Z,10.60
2023-05-12T06:55:20.634Z,10.90
2023-05-12T06:57:47.315Z,11.10
2023-05-12T07:00:14.445Z,11.40
2023-05-12T07:02:41.238Z,10.53
2023-05-12T07:05:08.137Z,10.47
2023-05-12T07:07:35.912Z,9.13
2023-05-12T07:10:02.531Z,9.60
2023-05-12T07:12:28.936Z,10.20
2023-05-12T07:14:55.340Z,8.50
2023-05-12T07:17:21.905Z,9.57
2023-05-12T07:19:48.510Z,9.17
2023-05-12T07:22:14.950Z,8.97
2023-05-12T07:24:41.631Z,7.70
2023-05-12T07:27:08.219Z,8.40
2023-05-12T07:29:34.926Z,8.93
2023-05-12T07:32:01.369Z,9.27
2023-05-12T07:34:27.808Z,9.33
2023-05-12T07:36:54.412Z,9.00
2023-05-12T07:39:23.742Z,9.37
2023-05-12T07:41:50.935Z,9.03
2023-05-12T07:44:17.402Z,8.63
2023-05-12T07:46:43.897Z,8.67
2023-05-12T07:49:10.350Z,8.57
2023-05-12T07:51:36.942Z,8.53
2023-05-12T07:54:07.680Z,8.53
2023-05-12T07:56:34.197Z,8.57
2023-05-12T07:59:01.032Z,8.83
2023-05-12T08:01:27.464Z,8.97
2023-05-12T08:03:54.002Z,9.37
2023-05-12T08:06:20.735Z,7.87
2023-05-12T08:08:47.167Z,7.30
2023-05-12T08:11:13.556Z,7.70
2023-05-12T08:13:40.087Z,7.67
2023-05-12T08:16:06.654Z,7.10
2023-05-12T08:18:33.130Z,7.40
2023-05-12T08:20:59.531Z,6.90
2023-05-12T08:23:26.061Z,7.33
2023-05-12T08:25:52.481Z,8.27
2023-05-12T08:28:19.123Z,7.43
2023-05-12T08:30:45.813Z,7.87
2023-05-12T08:33:12.828Z,7.30
2023-05-12T08:35:39.504Z,6.70
2023-05-12T08:38:06.398Z,6.57
2023-05-12T08:40:38.589Z,6.70
2023-05-12T08:43:12.313Z,6.83
2023-05-12T08:45:40.406Z,6.57
2023-05-12T08:48:10.116Z,6.83
2023-05-12T08:50:38.454Z,5.80
2023-05-12T08:53:07.896Z,6.20
2023-05-12T08:55:35.264Z,6.40
2023-05-12T08:58:03.100Z,6.40
2023-05-12T09:00:31.148Z,5.07
2023-05-12T09:02:59.415Z,5.10
2023-05-12T09:05:30.118Z,6.13
2023-05-12T09:07:56.820Z,5.40
2023-05-12T09:13:08.945Z,4.80
2023-05-12T09:15:39.014Z,5.00
2023-05-12T09:18:06.033Z,4.73
2023-05-12T09:20:32.815Z,4.60
2023-05-12T09:23:00.091Z,4.60
2023-05-12T09:25:26.683Z,4.70
2023-05-12T09:27:58.879Z,3.87
2023-05-12T09:30:30.738Z,4.00
2023-05-12T09:33:11.475Z,4.20
2023-05-12T09:35:39.674Z,4.03
2023-05-12T09:38:10.003Z,4.63
2023-05-12T09:40:36.948Z,4.33
2023-05-12T09:43:05.520Z,4.00
2023-05-12T09:45:36.541Z,3.60
2023-05-12T09:48:12.690Z,4.03
2023-05-12T09:50:49.653Z,3.80
2023-05-12T09:53:17.833Z,4.20
2023-05-12T09:55:48.155Z,4.13
2023-05-12T09:58:19.166Z,3.90
2023-05-12T10:03:17.674Z,4.70
2023-05-12T10:05:49.295Z,5.00
2023-05-12T10:08:21.348Z,4.87
2023-05-12T10:10:49.144Z,5.03
2023-05-12T10:13:15.982Z,5.20
2023-05-12T10:15:43.009Z,5.10
2023-05-12T10:18:11.128Z,4.70
2023-05-12T10:20:37.994Z,4.90
2023-05-12T10:23:04.527Z,5.27
2023-05-12T10:25:31.016Z,4.13
2023-05-12T10:27:57.994Z,4.17
2023-05-12T10:30:24.465Z,4.03
2023-05-12T10:32:51.002Z,3.40
2023-05-12T10:35:17.543Z,3.20
2023-05-12T10:37:44.706Z,3.13
2023-05-12T10:40:11.272Z,3.67
2023-05-12T10:42:43.006Z,2.97
2023-05-12T10:45:17.716Z,4.10
2023-05-12T10:47:44.779Z,3.63
2023-05-12T10:50:13.578Z,4.33
2023-05-12T10:53:00.361Z,3.57
2023-05-12T10:55:42.842Z,3.53
2023-05-12T10:58:12.087Z,3.73
2023-05-12T11:00:47.902Z,3.13
2023-05-12T11:03:17.485Z,3.30
2023-05-12T11:05:46.826Z,3.77
2023-05-12T11:08:14.347Z,3.47
2023-05-12T11:10:42.426Z,3.50
2023-05-12T11:13:09.559Z,4.30
2023-05-12T11:15:36.093Z,3.80
2023-05-12T11:18:03.754Z,3.47
2023-05-12T11:20:30.997Z,3.90
2023-05-12T11:22:57.763Z,3.70
2023-05-12T11:25:29.300Z,3.50
2023-05-12T11:27:56.301Z,4.00
2023-05-12T11:30:22.821Z,4.00
2023-05-12T11:33:00.242Z,4.00
2023-05-12T11:35:30.435Z,3.70
2023-05-12T11:37:56.891Z,3.40
2023-05-12T11:40:23.924Z,3.47
2023-05-12T11:42:55.861Z,3.30
2023-05-12T11:45:28.633Z,3.20
2023-05-12T11:48:16.405Z,3.20
2023-05-12T11:50:46.543Z,3.10
2023-05-12T11:53:15.549Z,3.47
2023-05-12T11:55:54.317Z,2.87
2023-05-12T11:58:22.779Z,2.90
2023-05-12T12:00:49.703Z,3.03
2023-05-12T12:03:16.520Z,3.30
2023-05-12T12:05:45.340Z,3.70
2023-05-12T12:08:13.874Z,3.43
2023-05-12T12:10:46.679Z,3.50
2023-05-12T12:13:19.641Z,3.77
2023-05-12T12:15:46.031Z,3.63
2023-05-12T12:18:12.625Z,3.53
2023-05-12T12:20:39.036Z,3.30
2023-05-12T12:23:05.478Z,3.40
2023-05-12T12:25:31.939Z,3.60
2023-05-12T12:27:58.357Z,3.00
2023-05-12T12:30:24.802Z,2.90
2023-05-12T12:32:51.539Z,2.90
2023-05-12T12:35:18.126Z,2.80
2023-05-12T12:37:51.109Z,2.67
2023-05-12T12:40:20.626Z,3.57
2023-05-12T12:42:47.299Z,3.40
2023-05-12T12:45:13.799Z,3.00
2023-05-12T12:47:40.330Z,2.83
2023-05-12T12:50:07.809Z,2.93
2023-05-12T12:52:34.543Z,2.70
2023-05-12T12:55:01.099Z,2.43
2023-05-12T12:57:27.558Z,2.70
2023-05-12T12:59:54.270Z,3.37
2023-05-12T13:02:20.853Z,2.80
2023-05-12T13:04:47.669Z,3.47
2023-05-12T13:07:14.333Z,3.07
2023-05-12T13:09:40.851Z,3.07
2023-05-12T13:12:07.780Z,2.80
2023-05-12T13:14:34.433Z,2.80
2023-05-12T13:17:01.538Z,3.20
2023-05-12T13:19:28.037Z,2.87
2023-05-12T13:21:54.473Z,3.40
2023-05-12T13:24:21.124Z,3.17
2023-05-12T13:26:47.569Z,3.10
2023-05-12T13:29:13.995Z,3.10
2023-05-12T13:31:41.251Z,3.10
2023-05-12T13:34:07.688Z,3.60
2023-05-12T13:36:34.806Z,3.10
2023-05-12T13:39:02.729Z,3.10
2023-05-12T13:41:29.655Z,3.47
2023-05-12T13:43:56.168Z,3.57
2023-05-12T13:46:22.883Z,2.80
2023-05-12T13:48:50.816Z,2.90
2023-05-12T13:51:17.296Z,3.00
2023-05-12T13:53:43.834Z,2.90
2023-05-12T13:56:10.381Z,2.90
2023-05-12T13:58:36.840Z,3.00
2023-05-12T14:01:03.517Z,3.10
2023-05-12T14:03:30.190Z,3.27
2023-05-12T14:05:56.591Z,3.03
2023-05-12T14:08:23.226Z,2.50
2023-05-12T14:10:49.678Z,3.00
2023-05-12T14:13:16.222Z,3.00
2023-05-12T14:15:49.348Z,2.80
2023-05-12T14:18:16.806Z,2.87
2023-05-12T14:20:43.235Z,3.13
2023-05-12T14:23:09.661Z,3.03
2023-05-12T14:25:36.153Z,3.27
2023-05-12T14:28:03.458Z,3.10
2023-05-12T14:30:30.069Z,3.47
2023-05-12T14:32:56.671Z,3.10
2023-05-12T14:35:27.281Z,3.00
2023-05-12T14:37:53.721Z,2.97
2023-05-12T14:40:20.256Z,3.33
2023-05-12T14:42:48.145Z,2.50
2023-05-12T14:45:14.773Z,3.33
2023-05-12T14:47:41.631Z,3.63
2023-05-12T14:50:08.433Z,3.40
2023-05-12T14:52:38.314Z,3.33
2023-05-12T14:55:14.815Z,3.40
2023-05-12T14:57:41.728Z,3.33
2023-05-12T15:00:10.788Z,3.80
2023-05-12T15:02:37.584Z,3.17
2023-05-12T15:05:05.159Z,2.73
2023-05-12T15:07:31.657Z,3.20
2023-05-12T15:09:58.385Z,3.20
2023-05-12T15:12:25.016Z,3.43
2023-05-12T15:14:51.720Z,3.27
2023-05-12T15:17:18.837Z,3.10
2023-05-12T15:19:45.444Z,3.40
2023-05-12T15:22:12.260Z,3.37
2023-05-12T15:24:38.698Z,3.00
2023-05-12T15:27:05.577Z,3.60
2023-05-12T15:29:32.563Z,3.40
2023-05-12T15:31:59.031Z,3.57
2023-05-12T15:34:25.536Z,3.00
2023-05-12T15:36:52.553Z,3.60
2023-05-12T15:39:20.133Z,3.17
2023-05-12T15:41:47.498Z,2.93
2023-05-12T15:44:14.000Z,3.13
2023-05-12T15:46:41.767Z,3.10
2023-05-12T15:49:08.750Z,3.13
2023-05-12T15:51:36.465Z,3.33
2023-05-12T15:54:03.852Z,3.40
2023-05-12T15:56:30.434Z,3.10
2023-05-12T15:58:57.025Z,3.23
2023-05-12T16:01:24.184Z,2.70
2023-05-12T16:03:51.629Z,3.57
2023-05-12T16:06:18.485Z,3.57
2023-05-12T16:08:45.209Z,3.43
2023-05-12T16:11:13.112Z,3.30
2023-05-12T16:13:40.152Z,2.80
2023-05-12T16:16:08.095Z,2.83
2023-05-12T16:18:34.578Z,3.27
2023-05-12T16:21:02.119Z,3.43
2023-05-12T16:23:28.764Z,3.00
2023-05-12T16:25:55.236Z,3.05
2023-05-12T16:28:21.931Z,3.00
2023-05-12T16:30:48.436Z,3.03
2023-05-12T16:33:14.883Z,3.13
2023-05-12T16:35:41.373Z,2.93
2023-05-12T16:38:08.213Z,3.20
2023-05-12T16:40:34.666Z,3.10
2023-05-12T16:43:01.211Z,3.60
2023-05-12T16:45:27.918Z,3.23
2023-05-12T16:47:54.332Z,3.03
2023-05-12T16:50:20.804Z,3.00
2023-05-12T16:52:47.226Z,2.80
2023-05-12T16:55:13.660Z,3.80
2023-05-12T16:57:42.668Z,3.57
2023-05-12T17:00:10.580Z,2.90
2023-05-12T17:02:38.905Z,3.33
2023-05-12T17:05:05.810Z,3.10
2023-05-12T17:07:35.089Z,3.50
2023-05-12T17:10:01.894Z,3.00
2023-05-12T17:12:28.430Z,3.17
2023-05-12T17:15:06.324Z,3.00
2023-05-12T17:17:34.386Z,2.93
2023-05-12T17:20:01.057Z,2.70
2023-05-12T17:22:28.002Z,3.20
2023-05-12T17:24:54.748Z,3.07
2023-05-12T17:27:21.525Z,2.80
2023-05-12T17:29:47.940Z,2.57
2023-05-12T17:32:14.327Z,3.20
2023-05-12T17:34:44.077Z,2.90
2023-05-12T17:37:10.722Z,3.07
2023-05-12T17:39:40.408Z,3.20
2023-05-12T17:42:07.356Z,3.07
2023-05-12T17:44:34.137Z,2.97
2023-05-12T17:47:01.068Z,3.23
2023-05-12T17:49:27.720Z,2.80
2023-05-12T17:51:54.924Z,2.80
2023-05-12T17:54:21.436Z,3.03
2023-05-12T17:56:48.147Z,2.97
2023-05-12T17:59:14.914Z,2.90
2023-05-12T18:01:41.328Z,3.10
2023-05-12T18:04:08.224Z,3.07
2023-05-12T18:06:34.704Z,3.20
2023-05-12T18:09:01.153Z,2.80
2023-05-12T18:11:29.104Z,2.83
2023-05-12T18:13:56.071Z,3.47
2023-05-12T18:16:28.514Z,3.23
2023-05-12T18:18:55.822Z,3.03
2023-05-12T18:21:22.363Z,4.33
2023-05-12T18:23:48.924Z,2.87
2023-05-12T18:26:15.475Z,3.13
2023-05-12T18:28:41.977Z,3.20
2023-05-12T18:31:15.953Z,3.07
2023-05-12T18:33:46.433Z,3.10
2023-05-12T18:36:13.089Z,3.23
2023-05-12T18:38:39.700Z,3.10
2023-05-12T18:41:06.230Z,3.33
2023-05-12T18:43:32.800Z,3.40
2023-05-12T18:45:59.257Z,3.53
2023-05-12T18:48:25.706Z,3.23
2023-05-12T18:50:52.292Z,3.37
2023-05-12T18:53:18.895Z,3.17
2023-05-12T18:55:45.341Z,3.90
2023-05-12T18:58:11.836Z,3.83
2023-05-12T19:00:38.340Z,3.70
2023-05-12T19:03:04.920Z,4.00
2023-05-12T19:05:31.619Z,4.80
2023-05-12T19:07:58.200Z,4.07
2023-05-12T19:10:24.728Z,3.90
2023-05-12T19:12:51.371Z,4.60
2023-05-12T19:15:17.904Z,4.10
2023-05-12T19:17:44.529Z,4.30
2023-05-12T19:20:11.246Z,4.50
2023-05-12T19:22:37.668Z,3.73
2023-05-12T19:25:04.551Z,4.70
2023-05-12T19:27:31.258Z,3.80
2023-05-12T19:29:58.654Z,4.70
2023-05-12T19:32:25.217Z,4.30
2023-05-12T19:34:51.652Z,4.07
2023-05-12T19:37:19.309Z,4.10
2023-05-12T19:39:46.284Z,4.10
2023-05-12T19:42:12.790Z,4.40
2023-05-12T19:44:39.290Z,4.90
2023-05-12T19:47:06.046Z,4.80
2023-05-12T19:49:35.980Z,4.93
2023-05-12T19:52:03.391Z,4.93
2023-05-12T19:54:30.292Z,4.77
2023-05-12T19:56:56.788Z,5.10
2023-05-12T19:59:24.246Z,4.53
2023-05-12T20:01:51.308Z,4.83
2023-05-12T20:04:17.759Z,4.60
2023-05-12T20:06:44.583Z,4.90
2023-05-12T20:09:11.454Z,4.50
2023-05-12T20:11:38.096Z,4.60
2023-05-12T20:14:04.717Z,4.77
2023-05-12T20:16:31.206Z,4.93
2023-05-12T20:18:57.673Z,4.40
2023-05-12T20:21:24.220Z,4.80
2023-05-12T20:23:50.669Z,4.77
2023-05-12T20:26:17.097Z,4.80
2023-05-12T20:28:43.640Z,5.40
2023-05-12T20:31:10.280Z,4.57
2023-05-12T20:33:36.743Z,4.87
2023-05-12T20:36:03.289Z,5.03
2023-05-12T20:38:29.820Z,4.60
2023-05-12T20:40:56.199Z,4.30
2023-05-12T20:43:22.723Z,4.33
2023-05-12T20:45:49.198Z,4.40
2023-05-12T20:48:15.716Z,5.03
2023-05-12T20:50:43.073Z,4.60
2023-05-12T20:53:09.715Z,4.80
2023-05-12T20:55:36.756Z,4.67
2023-05-12T20:58:03.206Z,4.27
2023-05-12T21:00:29.676Z,5.37
2023-05-12T21:02:58.049Z,5.13
2023-05-12T21:05:24.818Z,4.97
2023-05-12T21:07:51.464Z,4.70
2023-05-12T21:10:18.099Z,4.83
2023-05-12T21:12:44.740Z,5.57
2023-05-12T21:15:11.463Z,5.60
2023-05-12T21:17:39.609Z,5.23
2023-05-12T21:20:10.730Z,5.97
2023-05-12T21:22:38.280Z,5.97
2023-05-12T21:25:05.235Z,5.40
2023-05-12T21:27:31.836Z,5.70
2023-05-12T21:29:58.276Z,5.77
2023-05-12T21:32:24.843Z,5.57
2023-05-12T21:34:51.286Z,5.10
2023-05-12T21:37:17.965Z,5.87
2023-05-12T21:39:44.631Z,5.87
2023-05-12T21:42:11.270Z,5.40
2023-05-12T21:44:37.681Z,6.03
2023-05-12T21:47:04.390Z,5.30
2023-05-12T21:49:31.013Z,5.67
2023-05-12T21:51:57.575Z,5.40
2023-05-12T21:54:24.200Z,5.43
2023-05-12T21:56:50.946Z,5.63
2023-05-12T21:59:17.602Z,5.03
2023-05-12T22:01:44.102Z,5.43
2023-05-12T22:04:10.772Z,5.63
2023-05-12T22:06:37.627Z,6.03
2023-05-12T22:09:05.161Z,5.60
2023-05-12T22:11:31.646Z,5.10
2023-05-12T22:13:58.060Z,5.03
2023-05-12T22:16:31.006Z,5.77
2023-05-12T22:19:01.190Z,5.47
2023-05-12T22:21:27.681Z,5.47
2023-05-12T22:23:54.146Z,5.77
2023-05-12T22:26:20.660Z,4.97
2023-05-12T22:28:47.029Z,5.27
2023-05-12T22:31:13.547Z,5.07
2023-05-12T22:33:39.999Z,5.37
2023-05-12T22:36:07.369Z,5.83
2023-05-12T22:38:33.769Z,6.27
2023-05-12T22:41:00.255Z,6.17
2023-05-12T22:43:26.664Z,5.87
2023-05-12T22:45:53.641Z,5.47
2023-05-12T22:48:20.202Z,5.30
2023-05-12T22:50:46.611Z,6.10
2023-05-12T22:53:13.735Z,5.67
2023-05-12T22:55:40.387Z,6.00
2023-05-12T22:58:06.847Z,5.50
2023-05-12T23:00:33.337Z,6.27
2023-05-12T23:03:00.100Z,5.53
2023-05-12T23:05:26.642Z,6.47
2023-05-12T23:07:53.011Z,5.77
2023-05-12T23:10:19.827Z,5.87
2023-05-12T23:12:46.568Z,5.53
2023-05-12T23:15:13.000Z,6.17
2023-05-12T23:17:39.455Z,6.30
2023-05-12T23:20:07.689Z,5.90
2023-05-12T23:22:34.096Z,6.10
2023-05-12T23:25:00.465Z,5.87
2023-05-12T23:27:26.972Z,6.03
2023-05-12T23:29:53.635Z,7.00
2023-05-12T23:32:20.365Z,6.37
2023-05-12T23:34:46.883Z,7.00
2023-05-12T23:37:13.326Z,6.23
2023-05-12T23:39:39.836Z,6.53
2023-05-12T23:42:06.518Z,6.83
2023-05-12T23:44:33.160Z,7.33
2023-05-12T23:46:59.561Z,6.47
2023-05-12T23:49:26.399Z,6.57
2023-05-12T23:51:53.077Z,6.83
2023-05-12T23:54:19.439Z,6.30
2023-05-12T23:56:45.840Z,6.20
2023-05-12T23:59:12.204Z,7.17
